sensor_id;sensor_type;location;lat;lon;timestamp;temperature;humidity
43089;DHT22;28709;52.030;5.652;2022-08-11T00:00:05;21.50;68.10
43089;DHT22;28709;52.030;5.652;2022-08-11T00:02:36;21.50;68.20
43089;DHT22;28709;52.030;5.652;2022-08-11T00:05:28;21.40;68.40
43089;DHT22;28709;52.030;5.652;2022-08-11T00:07:56;21.40;68.70
43089;DHT22;28709;52.030;5.652;2022-08-11T00:10:25;21.30;68.70
43089;DHT22;28709;52.030;5.652;2022-08-11T00:12:57;21.30;68.90
43089;DHT22;28709;52.030;5.652;2022-08-11T00:15:24;21.20;69.00
43089;DHT22;28709;52.030;5.652;2022-08-11T00:17:59;21.20;69.10
43089;DHT22;28709;52.030;5.652;2022-08-11T00:20:33;21.20;69.30
43089;DHT22;28709;52.030;5.652;2022-08-11T00:23:10;21.20;69.40
43089;DHT22;28709;52.030;5.652;2022-08-11T00:25:42;21.20;69.50
43089;DHT22;28709;52.030;5.652;2022-08-11T00:28:27;21.10;69.50
43089;DHT22;28709;52.030;5.652;2022-08-11T00:30:54;21.10;69.60
43089;DHT22;28709;52.030;5.652;2022-08-11T00:33:23;21.10;69.80
43089;DHT22;28709;52.030;5.652;2022-08-11T00:35:50;21.00;69.90
43089;DHT22;28709;52.030;5.652;2022-08-11T00:38:27;21.00;70.10
43089;DHT22;28709;52.030;5.652;2022-08-11T00:43:46;20.90;70.20
43089;DHT22;28709;52.030;5.652;2022-08-11T00:51:56;20.90;70.60
43089;DHT22;28709;52.030;5.652;2022-08-11T00:55:56;20.90;70.70
43089;DHT22;28709;52.030;5.652;2022-08-11T01:01:32;20.80;70.90
43089;DHT22;28709;52.030;5.652;2022-08-11T01:04:27;20.80;71.10
43089;DHT22;28709;52.030;5.652;2022-08-11T01:46:12;20.40;73.00
43089;DHT22;28709;52.030;5.652;2022-08-11T01:56:28;20.40;73.50
43089;DHT22;28709;52.030;5.652;2022-08-11T02:12:00;20.20;74.40
43089;DHT22;28709;52.030;5.652;2022-08-11T02:14:42;20.20;74.50
43089;DHT22;28709;52.030;5.652;2022-08-11T02:17:18;20.20;74.80
43089;DHT22;28709;52.030;5.652;2022-08-11T02:19:57;20.10;74.90
43089;DHT22;28709;52.030;5.652;2022-08-11T02:25:49;20.10;75.10
43089;DHT22;28709;52.030;5.652;2022-08-11T02:31:08;20.00;75.60
43089;DHT22;28709;52.030;5.652;2022-08-11T02:34:04;20.00;75.70
43089;DHT22;28709;52.030;5.652;2022-08-11T02:36:48;20.00;75.90
43089;DHT22;28709;52.030;5.652;2022-08-11T02:39:19;19.90;76.10
43089;DHT22;28709;52.030;5.652;2022-08-11T02:42:09;19.90;76.50
43089;DHT22;28709;52.030;5.652;2022-08-11T02:48:05;19.90;76.80
43089;DHT22;28709;52.030;5.652;2022-08-11T02:53:48;19.80;77.10
43089;DHT22;28709;52.030;5.652;2022-08-11T02:59:40;19.80;77.50
43089;DHT22;28709;52.030;5.652;2022-08-11T03:02:39;19.80;77.70
43089;DHT22;28709;52.030;5.652;2022-08-11T03:13:13;19.60;78.20
43089;DHT22;28709;52.030;5.652;2022-08-11T03:16:31;19.60;78.30
43089;DHT22;28709;52.030;5.652;2022-08-11T03:19:45;19.60;78.40
43089;DHT22;28709;52.030;5.652;2022-08-11T03:22:29;19.60;78.70
43089;DHT22;28709;52.030;5.652;2022-08-11T03:28:00;19.50;79.10
43089;DHT22;28709;52.030;5.652;2022-08-11T03:30:47;19.50;79.40
43089;DHT22;28709;52.030;5.652;2022-08-11T03:36:14;19.50;79.70
43089;DHT22;28709;52.030;5.652;2022-08-11T03:41:35;19.40;80.10
43089;DHT22;28709;52.030;5.652;2022-08-11T03:58:54;19.30;81.20
43089;DHT22;28709;52.030;5.652;2022-08-11T04:01:36;19.30;81.30
43089;DHT22;28709;52.030;5.652;2022-08-11T04:19:17;19.10;82.10
43089;DHT22;28709;52.030;5.652;2022-08-11T04:25:09;19.10;82.30
43089;DHT22;28709;52.030;5.652;2022-08-11T04:33:32;19.00;82.70
43089;DHT22;28709;52.030;5.652;2022-08-11T04:41:50;19.00;83.00
43089;DHT22;28709;52.030;5.652;2022-08-11T04:51:04;19.00;83.30
43089;DHT22;28709;52.030;5.652;2022-08-11T04:54:10;19.00;83.30
43089;DHT22;28709;52.030;5.652;2022-08-11T04:57:03;19.00;83.40
43089;DHT22;28709;52.030;5.652;2022-08-11T04:59:57;19.00;83.40
43089;DHT22;28709;52.030;5.652;2022-08-11T05:06:06;19.00;83.70
43089;DHT22;28709;52.030;5.652;2022-08-11T05:14:51;19.00;83.90
43089;DHT22;28709;52.030;5.652;2022-08-11T05:17:58;19.00;83.90
43089;DHT22;28709;52.030;5.652;2022-08-11T05:20:49;19.00;84.10
43089;DHT22;28709;52.030;5.652;2022-08-11T05:23:39;19.00;84.20
43089;DHT22;28709;52.030;5.652;2022-08-11T05:26:25;19.00;84.20
43089;DHT22;28709;52.030;5.652;2022-08-11T05:29:41;19.10;84.30
43089;DHT22;28709;52.030;5.652;2022-08-11T05:32:36;19.10;84.30
43089;DHT22;28709;52.030;5.652;2022-08-11T05:35:40;19.20;84.20
43089;DHT22;28709;52.030;5.652;2022-08-11T05:38:17;19.20;84.30
43089;DHT22;28709;52.030;5.652;2022-08-11T05:41:04;19.30;84.20
43089;DHT22;28709;52.030;5.652;2022-08-11T05:43:49;19.40;84.20
43089;DHT22;28709;52.030;5.652;2022-08-11T05:46:41;19.40;84.10
43089;DHT22;28709;52.030;5.652;2022-08-11T05:49:30;19.60;84.20
43089;DHT22;28709;52.030;5.652;2022-08-11T05:52:17;19.70;84.20
43089;DHT22;28709;52.030;5.652;2022-08-11T05:55:05;19.80;84.10
43089;DHT22;28709;52.030;5.652;2022-08-11T05:57:58;19.90;83.90
43089;DHT22;28709;52.030;5.652;2022-08-11T06:00:25;20.00;83.80
43089;DHT22;28709;52.030;5.652;2022-08-11T06:02:57;20.10;83.80
43089;DHT22;28709;52.030;5.652;2022-08-11T06:05:24;20.20;83.80
43089;DHT22;28709;52.030;5.652;2022-08-11T06:07:57;20.30;83.70
43089;DHT22;28709;52.030;5.652;2022-08-11T06:10:30;20.40;83.70
43089;DHT22;28709;52.030;5.652;2022-08-11T06:12:58;20.50;83.60
43089;DHT22;28709;52.030;5.652;2022-08-11T06:15:25;20.60;83.60
43089;DHT22;28709;52.030;5.652;2022-08-11T06:17:51;20.70;83.40
43089;DHT22;28709;52.030;5.652;2022-08-11T06:20:20;20.80;83.40
43089;DHT22;28709;52.030;5.652;2022-08-11T06:22:58;20.90;83.20
43089;DHT22;28709;52.030;5.652;2022-08-11T06:25:35;21.00;83.10
43089;DHT22;28709;52.030;5.652;2022-08-11T06:28:05;21.10;83.00
43089;DHT22;28709;52.030;5.652;2022-08-11T06:30:39;21.20;82.80
43089;DHT22;28709;52.030;5.652;2022-08-11T06:33:09;21.40;82.70
43089;DHT22;28709;52.030;5.652;2022-08-11T06:35:50;21.50;82.50
43089;DHT22;28709;52.030;5.652;2022-08-11T06:41:19;21.70;82.20
43089;DHT22;28709;52.030;5.652;2022-08-11T06:46:45;22.10;81.80
43089;DHT22;28709;52.030;5.652;2022-08-11T06:49:14;22.30;81.30
43089;DHT22;28709;52.030;5.652;2022-08-11T06:52:04;22.50;81.10
43089;DHT22;28709;52.030;5.652;2022-08-11T06:54:36;22.60;81.00
43089;DHT22;28709;52.030;5.652;2022-08-11T06:57:06;22.70;81.00
43089;DHT22;28709;52.030;5.652;2022-08-11T06:59:52;22.80;80.90
43089;DHT22;28709;52.030;5.652;2022-08-11T07:02:56;23.00;80.80
43089;DHT22;28709;52.030;5.652;2022-08-11T07:05:48;23.10;80.70
43089;DHT22;28709;52.030;5.652;2022-08-11T07:08:42;23.30;80.40
43089;DHT22;28709;52.030;5.652;2022-08-11T07:14:50;23.70;80.00
43089;DHT22;28709;52.030;5.652;2022-08-11T07:17:43;23.90;79.10
43089;DHT22;28709;52.030;5.652;2022-08-11T07:20:14;24.10;78.10
43089;DHT22;28709;52.030;5.652;2022-08-11T07:23:02;24.30;77.40
43089;DHT22;28709;52.030;5.652;2022-08-11T07:25:50;24.60;77.20
43089;DHT22;28709;52.030;5.652;2022-08-11T07:28:39;24.70;76.50
43089;DHT22;28709;52.030;5.652;2022-08-11T07:36:28;25.20;74.80
43089;DHT22;28709;52.030;5.652;2022-08-11T07:38:56;25.50;74.90
43089;DHT22;28709;52.030;5.652;2022-08-11T07:41:23;25.70;75.00
43089;DHT22;28709;52.030;5.652;2022-08-11T07:43:55;25.90;74.50
43089;DHT22;28709;52.030;5.652;2022-08-11T07:46:37;26.10;74.00
43089;DHT22;28709;52.030;5.652;2022-08-11T07:49:22;26.30;73.70
43089;DHT22;28709;52.030;5.652;2022-08-11T07:52:07;26.60;73.60
43089;DHT22;28709;52.030;5.652;2022-08-11T07:54:52;26.80;73.40
43089;DHT22;28709;52.030;5.652;2022-08-11T07:57:18;27.10;72.40
43089;DHT22;28709;52.030;5.652;2022-08-11T08:00:03;27.20;72.00
43089;DHT22;28709;52.030;5.652;2022-08-11T08:02:47;27.40;72.00
43089;DHT22;28709;52.030;5.652;2022-08-11T08:05:31;27.50;72.00
43089;DHT22;28709;52.030;5.652;2022-08-11T08:08:16;27.70;71.90
43089;DHT22;28709;52.030;5.652;2022-08-11T08:11:01;27.90;70.80
43089;DHT22;28709;52.030;5.652;2022-08-11T08:13:46;28.10;69.40
43089;DHT22;28709;52.030;5.652;2022-08-11T08:16:33;28.20;68.70
43089;DHT22;28709;52.030;5.652;2022-08-11T08:19:19;28.40;68.40
43089;DHT22;28709;52.030;5.652;2022-08-11T08:21:46;28.50;68.70
43089;DHT22;28709;52.030;5.652;2022-08-11T08:24:13;28.70;68.80
43089;DHT22;28709;52.030;5.652;2022-08-11T08:26:40;28.70;68.70
43089;DHT22;28709;52.030;5.652;2022-08-11T08:29:33;28.80;68.70
43089;DHT22;28709;52.030;5.652;2022-08-11T08:32:18;28.90;68.70
43089;DHT22;28709;52.030;5.652;2022-08-11T08:34:50;29.00;68.80
43089;DHT22;28709;52.030;5.652;2022-08-11T08:37:21;29.20;68.70
43089;DHT22;28709;52.030;5.652;2022-08-11T08:39:49;29.30;68.40
43089;DHT22;28709;52.030;5.652;2022-08-11T08:42:29;29.50;67.70
43089;DHT22;28709;52.030;5.652;2022-08-11T08:45:04;29.70;66.70
43089;DHT22;28709;52.030;5.652;2022-08-11T08:47:34;29.80;66.10
43089;DHT22;28709;52.030;5.652;2022-08-11T08:50:04;30.00;65.20
43089;DHT22;28709;52.030;5.652;2022-08-11T08:52:35;30.30;65.00
43089;DHT22;28709;52.030;5.652;2022-08-11T08:55:06;30.50;64.60
43089;DHT22;28709;52.030;5.652;2022-08-11T08:57:35;30.60;64.40
43089;DHT22;28709;52.030;5.652;2022-08-11T09:00:03;30.70;64.50
43089;DHT22;28709;52.030;5.652;2022-08-11T09:02:30;30.80;64.00
43089;DHT22;28709;52.030;5.652;2022-08-11T09:04:57;31.00;64.00
43089;DHT22;28709;52.030;5.652;2022-08-11T09:07:24;31.10;64.00
43089;DHT22;28709;52.030;5.652;2022-08-11T09:09:55;31.10;63.90
43089;DHT22;28709;52.030;5.652;2022-08-11T09:12:26;31.10;64.00
43089;DHT22;28709;52.030;5.652;2022-08-11T09:14:53;31.20;63.80
43089;DHT22;28709;52.030;5.652;2022-08-11T09:17:26;31.20;63.00
43089;DHT22;28709;52.030;5.652;2022-08-11T09:19:58;31.30;62.90
43089;DHT22;28709;52.030;5.652;2022-08-11T09:22:30;31.30;62.80
43089;DHT22;28709;52.030;5.652;2022-08-11T09:25:26;31.30;62.90
43089;DHT22;28709;52.030;5.652;2022-08-11T09:28:13;31.40;62.40
43089;DHT22;28709;52.030;5.652;2022-08-11T09:30:44;31.40;62.00
43089;DHT22;28709;52.030;5.652;2022-08-11T09:33:15;31.50;61.70
43089;DHT22;28709;52.030;5.652;2022-08-11T09:35:41;31.50;61.50
43089;DHT22;28709;52.030;5.652;2022-08-11T09:38:11;31.60;60.90
43089;DHT22;28709;52.030;5.652;2022-08-11T09:40:57;31.70;60.40
43089;DHT22;28709;52.030;5.652;2022-08-11T09:43:24;31.80;60.20
43089;DHT22;28709;52.030;5.652;2022-08-11T09:46:09;31.90;59.70
43089;DHT22;28709;52.030;5.652;2022-08-11T09:48:39;31.70;59.10
43089;DHT22;28709;52.030;5.652;2022-08-11T09:51:07;31.70;58.60
43089;DHT22;28709;52.030;5.652;2022-08-11T09:53:37;32.00;58.20
43089;DHT22;28709;52.030;5.652;2022-08-11T09:56:05;32.20;57.60
43089;DHT22;28709;52.030;5.652;2022-08-11T09:58:51;32.20;57.30
43089;DHT22;28709;52.030;5.652;2022-08-11T10:01:20;32.30;56.60
43089;DHT22;28709;52.030;5.652;2022-08-11T10:04:14;32.30;55.90
43089;DHT22;28709;52.030;5.652;2022-08-11T10:06:41;32.50;56.00
43089;DHT22;28709;52.030;5.652;2022-08-11T10:09:27;32.70;56.30
43089;DHT22;28709;52.030;5.652;2022-08-11T10:11:57;32.90;56.10
43089;DHT22;28709;52.030;5.652;2022-08-11T10:14:24;32.90;56.10
43089;DHT22;28709;52.030;5.652;2022-08-11T10:17:09;32.70;55.90
43089;DHT22;28709;52.030;5.652;2022-08-11T10:19:36;32.60;55.50
43089;DHT22;28709;52.030;5.652;2022-08-11T10:22:04;32.60;54.60
43089;DHT22;28709;52.030;5.652;2022-08-11T10:24:51;32.80;55.00
43089;DHT22;28709;52.030;5.652;2022-08-11T10:27:38;33.10;54.70
43089;DHT22;28709;52.030;5.652;2022-08-11T10:30:06;33.20;54.30
43089;DHT22;28709;52.030;5.652;2022-08-11T10:32:50;33.40;54.30
43089;DHT22;28709;52.030;5.652;2022-08-11T10:35:36;33.50;53.50
43089;DHT22;28709;52.030;5.652;2022-08-11T10:38:03;33.40;52.60
43089;DHT22;28709;52.030;5.652;2022-08-11T10:40:29;33.40;53.00
43089;DHT22;28709;52.030;5.652;2022-08-11T10:42:58;33.40;52.40
43089;DHT22;28709;52.030;5.652;2022-08-11T10:45:36;33.40;51.50
43089;DHT22;28709;52.030;5.652;2022-08-11T10:48:29;33.00;50.30
43089;DHT22;28709;52.030;5.652;2022-08-11T10:50:56;32.60;50.50
43089;DHT22;28709;52.030;5.652;2022-08-11T10:53:44;32.50;50.50
43089;DHT22;28709;52.030;5.652;2022-08-11T10:56:32;32.50;50.70
43089;DHT22;28709;52.030;5.652;2022-08-11T10:59:18;32.60;50.20
43089;DHT22;28709;52.030;5.652;2022-08-11T11:01:44;32.50;50.10
43089;DHT22;28709;52.030;5.652;2022-08-11T11:04:14;32.50;50.40
43089;DHT22;28709;52.030;5.652;2022-08-11T11:07:07;32.70;50.40
43089;DHT22;28709;52.030;5.652;2022-08-11T11:09:45;32.90;50.00
43089;DHT22;28709;52.030;5.652;2022-08-11T11:12:33;32.80;49.70
43089;DHT22;28709;52.030;5.652;2022-08-11T11:15:20;32.70;49.60
43089;DHT22;28709;52.030;5.652;2022-08-11T11:18:23;32.80;50.00
43089;DHT22;28709;52.030;5.652;2022-08-11T11:20:55;33.00;49.90
43089;DHT22;28709;52.030;5.652;2022-08-11T11:23:32;33.10;49.90
43089;DHT22;28709;52.030;5.652;2022-08-11T11:28:57;33.20;50.10
43089;DHT22;28709;52.030;5.652;2022-08-11T11:37:01;33.10;49.90
43089;DHT22;28709;52.030;5.652;2022-08-11T11:39:29;33.10;49.60
43089;DHT22;28709;52.030;5.652;2022-08-11T11:42:04;33.00;49.30
43089;DHT22;28709;52.030;5.652;2022-08-11T11:44:31;32.90;49.40
43089;DHT22;28709;52.030;5.652;2022-08-11T11:46:58;32.80;49.50
43089;DHT22;28709;52.030;5.652;2022-08-11T11:49:27;32.90;49.80
43089;DHT22;28709;52.030;5.652;2022-08-11T11:51:55;33.00;49.60
43089;DHT22;28709;52.030;5.652;2022-08-11T11:54:23;33.10;49.50
43089;DHT22;28709;52.030;5.652;2022-08-11T11:56:52;33.10;49.20
43089;DHT22;28709;52.030;5.652;2022-08-11T11:59:23;33.10;49.30
43089;DHT22;28709;52.030;5.652;2022-08-11T12:02:11;32.90;49.70
43089;DHT22;28709;52.030;5.652;2022-08-11T12:04:40;32.80;49.30
43089;DHT22;28709;52.030;5.652;2022-08-11T12:07:08;32.90;49.10
43089;DHT22;28709;52.030;5.652;2022-08-11T12:09:53;32.90;49.20
43089;DHT22;28709;52.030;5.652;2022-08-11T12:12:20;33.00;48.90
43089;DHT22;28709;52.030;5.652;2022-08-11T12:15:06;33.00;48.50
43089;DHT22;28709;52.030;5.652;2022-08-11T12:17:34;33.10;48.60
43089;DHT22;28709;52.030;5.652;2022-08-11T12:20:00;33.20;48.30
43089;DHT22;28709;52.030;5.652;2022-08-11T12:22:26;33.10;47.90
43089;DHT22;28709;52.030;5.652;2022-08-11T12:25:11;32.90;48.00
43089;DHT22;28709;52.030;5.652;2022-08-11T12:27:55;32.90;48.40
43089;DHT22;28709;52.030;5.652;2022-08-11T12:30:21;32.90;48.20
43089;DHT22;28709;52.030;5.652;2022-08-11T12:32:47;32.90;48.40
43089;DHT22;28709;52.030;5.652;2022-08-11T12:35:14;32.80;48.20
43089;DHT22;28709;52.030;5.652;2022-08-11T12:37:47;32.70;48.20
43089;DHT22;28709;52.030;5.652;2022-08-11T12:40:15;32.80;48.50
43089;DHT22;28709;52.030;5.652;2022-08-11T12:43:03;32.80;48.50
43089;DHT22;28709;52.030;5.652;2022-08-11T12:45:56;33.10;48.70
43089;DHT22;28709;52.030;5.652;2022-08-11T12:48:29;33.20;48.80
43089;DHT22;28709;52.030;5.652;2022-08-11T12:51:19;33.30;49.00
43089;DHT22;28709;52.030;5.652;2022-08-11T12:56:41;33.50;48.50
43089;DHT22;28709;52.030;5.652;2022-08-11T12:59:26;33.50;48.70
43089;DHT22;28709;52.030;5.652;2022-08-11T13:02:15;33.60;48.20
43089;DHT22;28709;52.030;5.652;2022-08-11T13:05:05;33.50;48.20
43089;DHT22;28709;52.030;5.652;2022-08-11T13:07:31;33.40;47.70
43089;DHT22;28709;52.030;5.652;2022-08-11T13:10:00;33.10;47.40
43089;DHT22;28709;52.030;5.652;2022-08-11T13:12:29;32.90;47.90
43089;DHT22;28709;52.030;5.652;2022-08-11T13:17:41;32.90;48.00
43089;DHT22;28709;52.030;5.652;2022-08-11T13:20:09;32.90;48.20
43089;DHT22;28709;52.030;5.652;2022-08-11T13:22:41;32.60;48.00
43089;DHT22;28709;52.030;5.652;2022-08-11T13:25:11;32.50;48.40
43089;DHT22;28709;52.030;5.652;2022-08-11T13:27:38;32.70;48.60
43089;DHT22;28709;52.030;5.652;2022-08-11T13:30:05;32.80;48.50
43089;DHT22;28709;52.030;5.652;2022-08-11T13:32:51;32.80;48.30
43089;DHT22;28709;52.030;5.652;2022-08-11T13:35:17;32.80;48.40
43089;DHT22;28709;52.030;5.652;2022-08-11T13:37:45;32.80;48.40
43089;DHT22;28709;52.030;5.652;2022-08-11T13:40:12;32.90;48.50
43089;DHT22;28709;52.030;5.652;2022-08-11T13:42:39;33.00;48.60
43089;DHT22;28709;52.030;5.652;2022-08-11T13:45:06;33.20;48.30
43089;DHT22;28709;52.030;5.652;2022-08-11T13:47:33;33.10;47.60
43089;DHT22;28709;52.030;5.652;2022-08-11T13:49:59;33.00;47.40
43089;DHT22;28709;52.030;5.652;2022-08-11T13:52:26;32.90;47.60
43089;DHT22;28709;52.030;5.652;2022-08-11T13:54:53;33.00;47.50
43089;DHT22;28709;52.030;5.652;2022-08-11T13:57:20;32.90;47.60
43089;DHT22;28709;52.030;5.652;2022-08-11T13:59:51;33.00;47.70
43089;DHT22;28709;52.030;5.652;2022-08-11T14:02:22;33.00;47.70
43089;DHT22;28709;52.030;5.652;2022-08-11T14:05:07;33.10;47.80
43089;DHT22;28709;52.030;5.652;2022-08-11T14:07:39;33.20;47.90
43089;DHT22;28709;52.030;5.652;2022-08-11T14:10:07;33.10;47.70
43089;DHT22;28709;52.030;5.652;2022-08-11T14:12:36;33.00;47.40
43089;DHT22;28709;52.030;5.652;2022-08-11T14:15:31;32.90;47.50
43089;DHT22;28709;52.030;5.652;2022-08-11T14:18:16;32.70;47.20
43089;DHT22;28709;52.030;5.652;2022-08-11T14:20:43;32.70;47.30
43089;DHT22;28709;52.030;5.652;2022-08-11T14:23:30;32.70;47.20
43089;DHT22;28709;52.030;5.652;2022-08-11T14:25:57;32.70;47.80
43089;DHT22;28709;52.030;5.652;2022-08-11T14:28:43;32.60;47.20
43089;DHT22;28709;52.030;5.652;2022-08-11T14:31:09;32.50;47.30
43089;DHT22;28709;52.030;5.652;2022-08-11T14:33:37;32.40;47.40
43089;DHT22;28709;52.030;5.652;2022-08-11T14:36:03;32.50;47.40
43089;DHT22;28709;52.030;5.652;2022-08-11T14:38:35;32.60;47.30
43089;DHT22;28709;52.030;5.652;2022-08-11T14:41:03;32.60;47.20
43089;DHT22;28709;52.030;5.652;2022-08-11T14:43:47;32.50;47.10
43089;DHT22;28709;52.030;5.652;2022-08-11T14:46:33;32.40;47.10
43089;DHT22;28709;52.030;5.652;2022-08-11T14:49:18;32.30;47.10
43089;DHT22;28709;52.030;5.652;2022-08-11T14:51:45;32.20;47.00
43089;DHT22;28709;52.030;5.652;2022-08-11T14:54:13;32.20;46.90
43089;DHT22;28709;52.030;5.652;2022-08-11T14:56:58;32.20;46.90
43089;DHT22;28709;52.030;5.652;2022-08-11T15:05:00;32.30;46.70
43089;DHT22;28709;52.030;5.652;2022-08-11T15:07:28;32.20;46.60
43089;DHT22;28709;52.030;5.652;2022-08-11T15:09:57;32.10;47.50
43089;DHT22;28709;52.030;5.652;2022-08-11T15:12:23;32.10;46.90
43089;DHT22;28709;52.030;5.652;2022-08-11T15:14:50;32.10;46.90
43089;DHT22;28709;52.030;5.652;2022-08-11T15:17:35;32.10;46.80
43089;DHT22;28709;52.030;5.652;2022-08-11T15:20:05;32.20;46.60
43089;DHT22;28709;52.030;5.652;2022-08-11T15:22:50;32.20;46.60
43089;DHT22;28709;52.030;5.652;2022-08-11T15:25:35;32.30;46.50
43089;DHT22;28709;52.030;5.652;2022-08-11T15:28:03;32.20;46.10
43089;DHT22;28709;52.030;5.652;2022-08-11T15:30:52;32.10;46.10
43089;DHT22;28709;52.030;5.652;2022-08-11T15:33:38;32.10;46.10
43089;DHT22;28709;52.030;5.652;2022-08-11T15:36:24;32.00;46.20
43089;DHT22;28709;52.030;5.652;2022-08-11T15:39:18;32.10;46.30
43089;DHT22;28709;52.030;5.652;2022-08-11T15:41:55;32.10;46.30
43089;DHT22;28709;52.030;5.652;2022-08-11T15:44:42;32.10;46.00
43089;DHT22;28709;52.030;5.652;2022-08-11T15:47:35;32.00;45.70
43089;DHT22;28709;52.030;5.652;2022-08-11T15:50:03;32.00;45.50
43089;DHT22;28709;52.030;5.652;2022-08-11T15:52:33;31.90;45.70
43089;DHT22;28709;52.030;5.652;2022-08-11T15:55:05;31.90;45.90
43089;DHT22;28709;52.030;5.652;2022-08-11T15:57:32;31.90;46.00
43089;DHT22;28709;52.030;5.652;2022-08-11T16:00:18;31.80;46.10
43089;DHT22;28709;52.030;5.652;2022-08-11T16:03:05;31.80;46.20
43089;DHT22;28709;52.030;5.652;2022-08-11T16:05:50;31.70;46.20
43089;DHT22;28709;52.030;5.652;2022-08-11T16:08:20;31.80;46.30
43089;DHT22;28709;52.030;5.652;2022-08-11T16:10:48;31.80;46.20
43089;DHT22;28709;52.030;5.652;2022-08-11T16:13:15;31.80;46.20
43089;DHT22;28709;52.030;5.652;2022-08-11T16:15:46;31.80;46.30
43089;DHT22;28709;52.030;5.652;2022-08-11T16:18:55;31.80;46.30
43089;DHT22;28709;52.030;5.652;2022-08-11T16:21:39;31.70;46.30
43089;DHT22;28709;52.030;5.652;2022-08-11T16:24:10;31.70;46.40
43089;DHT22;28709;52.030;5.652;2022-08-11T16:26:40;31.70;47.20
43089;DHT22;28709;52.030;5.652;2022-08-11T16:29:07;31.70;46.40
43089;DHT22;28709;52.030;5.652;2022-08-11T16:31:35;31.60;46.40
43089;DHT22;28709;52.030;5.652;2022-08-11T16:34:03;31.60;46.50
43089;DHT22;28709;52.030;5.652;2022-08-11T16:36:30;31.60;46.50
43089;DHT22;28709;52.030;5.652;2022-08-11T16:39:16;31.60;46.50
43089;DHT22;28709;52.030;5.652;2022-08-11T16:41:42;31.50;46.60
43089;DHT22;28709;52.030;5.652;2022-08-11T16:44:27;31.50;46.70
43089;DHT22;28709;52.030;5.652;2022-08-11T16:47:15;31.50;46.80
43089;DHT22;28709;52.030;5.652;2022-08-11T16:49:50;31.50;46.80
43089;DHT22;28709;52.030;5.652;2022-08-11T16:52:17;31.50;46.80
43089;DHT22;28709;52.030;5.652;2022-08-11T16:54:43;31.40;46.80
43089;DHT22;28709;52.030;5.652;2022-08-11T16:57:25;31.40;47.00
43089;DHT22;28709;52.030;5.652;2022-08-11T17:00:14;31.40;47.10
43089;DHT22;28709;52.030;5.652;2022-08-11T17:02:49;31.40;47.10
43089;DHT22;28709;52.030;5.652;2022-08-11T17:05:35;31.40;47.20
43089;DHT22;28709;52.030;5.652;2022-08-11T17:08:42;31.40;47.20
43089;DHT22;28709;52.030;5.652;2022-08-11T17:11:33;31.40;47.40
43089;DHT22;28709;52.030;5.652;2022-08-11T17:14:36;31.30;47.30
43089;DHT22;28709;52.030;5.652;2022-08-11T17:17:05;31.20;47.40
43089;DHT22;28709;52.030;5.652;2022-08-11T17:19:33;31.20;47.50
43089;DHT22;28709;52.030;5.652;2022-08-11T17:22:02;31.20;47.50
43089;DHT22;28709;52.030;5.652;2022-08-11T17:24:47;31.20;47.60
43089;DHT22;28709;52.030;5.652;2022-08-11T17:27:17;31.10;47.60
43089;DHT22;28709;52.030;5.652;2022-08-11T17:29:53;31.00;47.70
43089;DHT22;28709;52.030;5.652;2022-08-11T17:32:29;31.00;47.80
43089;DHT22;28709;52.030;5.652;2022-08-11T17:35:17;31.00;47.90
43089;DHT22;28709;52.030;5.652;2022-08-11T17:38:05;31.00;48.00
43089;DHT22;28709;52.030;5.652;2022-08-11T17:40:36;31.00;48.10
43089;DHT22;28709;52.030;5.652;2022-08-11T17:43:05;30.90;48.10
43089;DHT22;28709;52.030;5.652;2022-08-11T17:45:50;30.90;48.20
43089;DHT22;28709;52.030;5.652;2022-08-11T17:48:32;30.90;48.30
43089;DHT22;28709;52.030;5.652;2022-08-11T17:51:10;30.80;48.30
43089;DHT22;28709;52.030;5.652;2022-08-11T17:53:41;30.80;48.40
43089;DHT22;28709;52.030;5.652;2022-08-11T17:56:28;30.70;48.30
43089;DHT22;28709;52.030;5.652;2022-08-11T17:59:13;30.60;48.20
43089;DHT22;28709;52.030;5.652;2022-08-11T18:02:00;30.60;48.30
43089;DHT22;28709;52.030;5.652;2022-08-11T18:04:49;30.60;48.40
43089;DHT22;28709;52.030;5.652;2022-08-11T18:07:17;30.60;48.30
43089;DHT22;28709;52.030;5.652;2022-08-11T18:10:06;30.50;48.40
43089;DHT22;28709;52.030;5.652;2022-08-11T18:12:53;30.50;49.10
43089;DHT22;28709;52.030;5.652;2022-08-11T18:15:39;30.40;48.40
43089;DHT22;28709;52.030;5.652;2022-08-11T18:18:24;30.40;48.50
43089;DHT22;28709;52.030;5.652;2022-08-11T18:21:10;30.30;48.40
43089;DHT22;28709;52.030;5.652;2022-08-11T18:23:56;30.30;48.50
43089;DHT22;28709;52.030;5.652;2022-08-11T18:26:44;30.20;48.50
43089;DHT22;28709;52.030;5.652;2022-08-11T18:29:30;30.20;48.60
43089;DHT22;28709;52.030;5.652;2022-08-11T18:32:17;30.10;49.20
43089;DHT22;28709;52.030;5.652;2022-08-11T18:35:03;30.10;48.70
43089;DHT22;28709;52.030;5.652;2022-08-11T18:37:49;30.00;48.70
43089;DHT22;28709;52.030;5.652;2022-08-11T18:40:35;30.00;48.80
43089;DHT22;28709;52.030;5.652;2022-08-11T18:43:21;29.90;48.70
43089;DHT22;28709;52.030;5.652;2022-08-11T18:46:09;29.80;48.70
43089;DHT22;28709;52.030;5.652;2022-08-11T18:49:00;29.80;48.90
43089;DHT22;28709;52.030;5.652;2022-08-11T18:51:47;29.70;48.80
43089;DHT22;28709;52.030;5.652;2022-08-11T18:54:36;29.70;48.90
43089;DHT22;28709;52.030;5.652;2022-08-11T18:57:21;29.60;49.00
43089;DHT22;28709;52.030;5.652;2022-08-11T19:00:07;29.50;49.10
43089;DHT22;28709;52.030;5.652;2022-08-11T19:02:51;29.40;49.10
43089;DHT22;28709;52.030;5.652;2022-08-11T19:05:38;29.40;49.20
43089;DHT22;28709;52.030;5.652;2022-08-11T19:08:27;29.30;49.20
43089;DHT22;28709;52.030;5.652;2022-08-11T19:11:13;29.30;49.30
43089;DHT22;28709;52.030;5.652;2022-08-11T19:13:59;29.20;49.40
43089;DHT22;28709;52.030;5.652;2022-08-11T19:16:45;29.10;49.50
43089;DHT22;28709;52.030;5.652;2022-08-11T19:19:30;29.00;49.50
43089;DHT22;28709;52.030;5.652;2022-08-11T19:22:17;28.90;49.60
43089;DHT22;28709;52.030;5.652;2022-08-11T19:25:03;28.80;49.60
43089;DHT22;28709;52.030;5.652;2022-08-11T19:27:49;28.80;50.40
43089;DHT22;28709;52.030;5.652;2022-08-11T19:30:35;28.70;49.80
43089;DHT22;28709;52.030;5.652;2022-08-11T19:33:20;28.60;49.80
43089;DHT22;28709;52.030;5.652;2022-08-11T19:36:05;28.50;49.80
43089;DHT22;28709;52.030;5.652;2022-08-11T19:38:50;28.50;50.00
43089;DHT22;28709;52.030;5.652;2022-08-11T19:41:37;28.40;50.00
43089;DHT22;28709;52.030;5.652;2022-08-11T19:44:23;28.30;50.10
43089;DHT22;28709;52.030;5.652;2022-08-11T19:47:08;28.30;50.20
43089;DHT22;28709;52.030;5.652;2022-08-11T19:49:53;28.10;50.20
43089;DHT22;28709;52.030;5.652;2022-08-11T19:52:38;28.00;50.30
43089;DHT22;28709;52.030;5.652;2022-08-11T19:55:25;27.90;50.40
43089;DHT22;28709;52.030;5.652;2022-08-11T19:58:11;27.90;51.20